Lena — V2FR — position and weather

sailwx.info

Track history (hours):
 
Tides and Currents Weather Stations Pressure Air Temp Water Temp Dewpoint Dewpoint Depression Visibility Wind Speed Wind Dir Waves Ship Positions

Lena

Last reported at 2014-Aug-21 13:25 UTC. Time now 2014-Aug-21 16:07 UTC.
Position N 36°14' E 000°12'.

Length 152 m; draft 7.6 m.

Type: Cargo ship. MMSI: 304080808.

Date/timePositionNaut miles runAvg speedWind from/ knotsBaromVisibWave heightAir tempDewpointWater temp
2014-Aug-21 13:25N 36°14' E 000°12'1916.2
2014-Aug-21 12:16N 36°25' E 000°31'1715.6
2014-Aug-21 11:11N 36°35' E 000°48'8017.0
2014-Aug-21 06:29N 36°54' E 002°25'6318.6
2014-Aug-21 03:06N 37°03' E 003°42'23218.5
2014-Aug-20 14:33N 37°20' E 008°33'5517.7
2014-Aug-20 11:28N 37°35' E 009°39'5717.2
2014-Aug-20 08:09N 37°35' E 010°51'9516.9
2014-Aug-20 02:33N 37°03' E 012°44'1918.7
2014-Aug-20 01:33N 36°56' E 013°05'2418.6
2014-Aug-20 00:14N 36°47' E 013°34'1418.4
2014-Aug-19 23:28N 36°42' E 013°50'1718.3
2014-Aug-19 22:34N 36°36' E 014°10'1818.0
2014-Aug-19 21:32N 36°30' E 014°31'1818.1
2014-Aug-19 20:33N 36°24' E 014°52'1818.2
2014-Aug-19 19:33N 36°18' E 015°13'2518.2
2014-Aug-19 18:10N 36°10' E 015°43'68117.4
2014-Aug-18 03:06N 32°38' E 028°47'14917.4
2014-Aug-17 18:33N 31°52' E 031°34'1716.8
2014-Aug-17 17:33N 31°47' E 031°53'1716.5
2014-Aug-17 16:33N 31°37' E 032°09'1616.0
2014-Aug-17 15:33N 31°25' E 032°22'1312.4
2014-Aug-17 14:29N 31°12' E 032°20'8 8.8
2014-Aug-17 13:33N 31°04' E 032°19'11 9.6
2014-Aug-17 12:22N 30°53' E 032°19'  
Track history (hours):
 
Tides and Currents Weather Stations Pressure Air Temp Water Temp Dewpoint Dewpoint Depression Visibility Wind Speed Wind Dir Waves Ship Positions

Lena

Last reported at 2014-Aug-21 13:25 UTC. Time now 2014-Aug-21 16:07 UTC.
Position N 36°14' E 000°12'.

Length 152 m; draft 7.6 m.

Type: Cargo ship. MMSI: 304080808.

Date/timePositionNaut miles runAvg speedWind from/ knotsBaromVisibWave heightAir tempDewpointWater temp
2014-Aug-21 13:25N 36°14' E 000°12'1916.2
2014-Aug-21 12:16N 36°25' E 000°31'1715.6
2014-Aug-21 11:11N 36°35' E 000°48'8017.0
2014-Aug-21 06:29N 36°54' E 002°25'6318.6
2014-Aug-21 03:06N 37°03' E 003°42'23218.5
2014-Aug-20 14:33N 37°20' E 008°33'5517.7
2014-Aug-20 11:28N 37°35' E 009°39'5717.2
2014-Aug-20 08:09N 37°35' E 010°51'9516.9
2014-Aug-20 02:33N 37°03' E 012°44'1918.7
2014-Aug-20 01:33N 36°56' E 013°05'2418.6
2014-Aug-20 00:14N 36°47' E 013°34'1418.4
2014-Aug-19 23:28N 36°42' E 013°50'1718.3
2014-Aug-19 22:34N 36°36' E 014°10'1818.0
2014-Aug-19 21:32N 36°30' E 014°31'1818.1
2014-Aug-19 20:33N 36°24' E 014°52'1818.2
2014-Aug-19 19:33N 36°18' E 015°13'2518.2
2014-Aug-19 18:10N 36°10' E 015°43'68117.4
2014-Aug-18 03:06N 32°38' E 028°47'14917.4
2014-Aug-17 18:33N 31°52' E 031°34'1716.8
2014-Aug-17 17:33N 31°47' E 031°53'1716.5
2014-Aug-17 16:33N 31°37' E 032°09'1616.0
2014-Aug-17 15:33N 31°25' E 032°22'1312.4
2014-Aug-17 14:29N 31°12' E 032°20'8 8.8
2014-Aug-17 13:33N 31°04' E 032°19'11 9.6
2014-Aug-17 12:22N 30°53' E 032°19'  

Dump ship's entire track history